Weather at Ploče Airport [CLOSED]

Public forecast

Using degrees Celsius for public forecast. Weather courtesy of forecast.io.

Closest aviation weather report (METAR) to Ploče Airport

Closest report is Mostar International Airport, 23.4 nm (43.3 km) NE.

2024/05/24 06:00 (retrieved 27 minutes ago)

LQMO 240600Z VRB01KT CAVOK 17/13 Q1018

Closest aviation forecast (TAF) to Ploče Airport

Closest forecast is Mostar International Airport, 23.4 nm (43.3 km) NE.

2024/05/24 06:06 (retrieved 21 minutes ago)

TAF LQMO 240500Z 2406/2506 VRB02KT CAVOK TX28/2413Z TN11/2504Z PROB30 TEMPO 2410/2415 22010KT SHRA FEW040TCU SCT045 PROB30 TEMPO 2503/2505 0300 FG